Boncath, United Kingdom
Current Conditions -  °F | °C
As of 4:50 AM on Wednesday 22 Oct 2014 (Local Time) from EGOP Reporting Station
Few Clouds Few Clouds  
Wind Chill: 52°   Ceiling: Unl
Heat Index: 52°   Visibility: 6mi
Dew Point: 45°   Wind: 20mph
Humidity: 76%   Direction: 280°W
Pressure: 30.3"   Gusts: NA
Location:  52.02°N, 4.58°W
Report Text: EGOP 220350Z AUTO 28017KT 9999 // FEW050/// 11/07 Q1026
Loading
Personal Weather Stations






























Interactive Weather Map
Tropical Storm Tracking
New forecast layout! Learn more

10-Day Weather Forecast

Advertisements
Track Severe Weather on mobile